This is the latest recevied weather packets stored in our database for station/object HB9TJM-8. If no packets are shown the sender has not sent any weather packets the latest 10 day(s).
| Time | Temp. | Humidity | Pressure | Rain* | Wind** | Luminosity | Snow |
|---|---|---|---|---|---|---|---|
| 1777664257 | 15° C | 56% | 1023.6 hPa | 0 mm | - | 0 W/m² | - |
| 1777663642 | 14.44° C | 58% | 1023.7 hPa | 0 mm | - | 0 W/m² | - |
| 1777663334 | 14.44° C | 59% | 1023.3 hPa | 0 mm | - | 0 W/m² | - |
| 1777663026 | 14.44° C | 59% | 1023.8 hPa | 0 mm | - | 0 W/m² | - |
| 1777662719 | 14.44° C | 58% | 1023.5 hPa | 0 mm | - | 0 W/m² | - |
| 1777661797 | 14.44° C | 58% | 1023.6 hPa | 0 mm | - | 0 W/m² | - |
| 1777661182 | 15° C | 57% | 1023.5 hPa | 0 mm | - | 2 W/m² | - |
| 1777660874 | 14.44° C | 59% | 1023.1 hPa | 0 mm | - | 4 W/m² | - |
| 1777660567 | 15° C | 59% | 1023.3 hPa | 0 mm | - | 6 W/m² | - |
| 1777660259 | 15° C | 59% | 1023.7 hPa | 0 mm | - | 9 W/m² | - |
| 1777659951 | 15° C | 60% | 1023.2 hPa | 0 mm | - | 12 W/m² | - |
| 1777659644 | 15° C | 59% | 1023 hPa | 0 mm | - | 15 W/m² | - |
| 1777659337 | 15° C | 61% | 1023.1 hPa | 0 mm | - | 19 W/m² | - |
| 1777659029 | 15° C | 59% | 1023 hPa | 0 mm | - | 23 W/m² | - |
| 1777658107 | 15.56° C | 58% | 1022.7 hPa | 0 mm | - | 32 W/m² | - |
| 1777656877 | 16.11° C | 56% | 1023 hPa | 0 mm | - | 41 W/m² | - |
| 1777656570 | 16.11° C | 55% | 1023.2 hPa | 0 mm | - | 41 W/m² | - |
| 1777654723 | 17.22° C | 51% | 1022.6 hPa | 0 mm | - | 47 W/m² | - |
| 1777653801 | 17.78° C | 50% | 1022.7 hPa | 0 mm | - | 54 W/m² | - |
| 1777653493 | 17.78° C | 50% | 1022.8 hPa | 0 mm | - | 56 W/m² | - |
| 1777653186 | 17.78° C | 50% | 1022.9 hPa | 0 mm | - | 58 W/m² | - |
| 1777652879 | 17.78° C | 52% | 1023 hPa | 0 mm | - | 59 W/m² | - |
| 1777652571 | 17.78° C | 51% | 1022.5 hPa | 0 mm | - | 61 W/m² | - |
| 1777652263 | 17.78° C | 50% | 1023.2 hPa | 0 mm | - | 93 W/m² | - |
| 1777651956 | 18.33° C | 50% | 1023 hPa | 0 mm | - | 62 W/m² | - |
* Rain latest hour (hover to see other rain measurements)
** Current wind speed in m/s (hover to see current wind gust speed)